Deep Creek, Idaho
Current Conditions -  °F | °C
As of 1:53 AM on Thursday 23 Oct 2014 (Local Time) from KJER Reporting Station
Broken Clouds Broken Clouds  
Wind Chill: 42°   Ceiling: 11000
Heat Index: 48°   Visibility: 10mi
Dew Point: 29°   Wind: 14mph
Humidity: 48%   Direction: 20°NNE
Pressure: 30.09"   Gusts: NA
Location:  42.6472°N, 114.901°W
Report Text: KJER 230753Z AUTO 02012KT 10SM BKN110 09/M02 A3009 RMK AO2 SLP176 T00891017
Loading
Personal Weather Stations






























Interactive Weather Map
Tropical Storm Tracking
New forecast layout! Learn more

10-Day Weather Forecast

Advertisements
Track Severe Weather on mobile